createdAt,value
2023-07-28T00:02:26.791Z,97874.46
2023-07-28T00:07:30.274Z,97958.63
2023-07-28T00:12:35.065Z,98018.69
2023-07-28T00:17:38.485Z,97969.06
2023-07-28T00:22:44.396Z,97916.10
2023-07-28T00:27:49.233Z,98038.17
2023-07-28T00:32:52.766Z,98179.40
2023-07-28T00:37:56.349Z,98770.18
2023-07-28T00:43:03.686Z,99029.07
2023-07-28T00:48:13.074Z,99322.45
2023-07-28T00:53:16.808Z,98992.66
2023-07-28T00:58:24.007Z,98773.96
2023-07-28T01:03:30.766Z,99654.34
2023-07-28T01:08:41.144Z,99358.73
2023-07-28T01:13:45.970Z,98748.16
2023-07-28T01:18:49.669Z,99003.68
2023-07-28T01:24:02.360Z,99393.06
2023-07-28T01:29:07.870Z,99089.70
2023-07-28T01:34:12.743Z,99102.12
2023-07-28T01:39:18.394Z,99267.79
2023-07-28T01:44:23.268Z,99173.07
2023-07-28T01:49:26.673Z,99201.32
2023-07-28T01:54:30.190Z,98885.07
2023-07-28T01:59:36.510Z,99103.02
2023-07-28T02:04:44.546Z,98917.43
2023-07-28T02:09:48.045Z,98803.07
2023-07-28T02:14:52.972Z,98850.79
2023-07-28T02:19:56.419Z,98756.63
2023-07-28T02:25:02.840Z,98829.13
2023-07-28T02:30:12.519Z,93733.80
2023-07-28T02:35:16.628Z,84081.69
2023-07-28T02:40:21.250Z,85856.81
2023-07-28T02:45:26.178Z,88391.42
2023-07-28T02:50:29.569Z,87685.58
2023-07-28T02:55:33.021Z,87086.24
2023-07-28T03:00:41.502Z,86081.30
2023-07-28T03:05:45.377Z,87886.64
2023-07-28T03:11:03.652Z,84784.71
2023-07-28T03:16:14.436Z,86628.38
2023-07-28T03:21:20.328Z,86877.02
2023-07-28T03:26:23.729Z,88910.56
2023-07-28T03:31:30.688Z,93684.65
2023-07-28T03:36:34.489Z,93632.25
2023-07-28T03:41:40.664Z,92511.10
2023-07-28T03:46:45.404Z,91677.38
2023-07-28T03:51:48.898Z,91306.95
2023-07-28T03:56:55.368Z,90920.58
2023-07-28T04:02:00.103Z,90607.93
2023-07-28T04:07:03.531Z,90529.20
2023-07-28T04:12:09.614Z,89538.20
2023-07-28T04:17:16.891Z,92498.42
2023-07-28T04:22:23.273Z,90964.87
2023-07-28T04:27:31.479Z,89939.17
2023-07-28T04:32:39.568Z,89574.88
2023-07-28T04:37:49.276Z,89559.23
2023-07-28T04:43:00.108Z,88438.40
2023-07-28T04:48:05.144Z,88219.46
2023-07-28T04:53:08.660Z,87778.38
2023-07-28T04:58:14.258Z,87659.95
2023-07-28T05:03:32.766Z,87640.71
2023-07-28T05:08:48.148Z,87486.25
2023-07-28T05:13:58.147Z,87193.73
2023-07-28T05:19:03.367Z,90692.00
2023-07-28T05:24:27.096Z,92564.34
2023-07-28T05:29:30.502Z,92201.38
2023-07-28T05:34:45.830Z,91944.55
2023-07-28T05:39:51.771Z,90897.01
2023-07-28T05:44:57.179Z,89977.42
2023-07-28T05:50:05.434Z,89625.69
2023-07-28T05:55:09.846Z,89464.20
2023-07-28T06:00:15.775Z,89330.17
2023-07-28T06:05:20.449Z,89271.11
2023-07-28T06:10:26.901Z,88603.23
2023-07-28T06:15:31.070Z,88452.88
2023-07-28T06:20:36.602Z,88075.70
2023-07-28T06:25:44.856Z,88826.16
2023-07-28T06:30:48.838Z,88622.65
2023-07-28T06:35:53.653Z,88183.27
2023-07-28T06:40:57.535Z,87891.55
2023-07-28T06:46:03.302Z,87763.89
2023-07-28T06:51:08.376Z,87406.39
2023-07-28T06:56:11.852Z,87098.58
2023-07-28T07:01:15.368Z,87011.54
2023-07-28T07:06:20.173Z,86779.98
2023-07-28T07:11:28.363Z,86922.63
2023-07-28T07:16:34.455Z,86792.12
2023-07-28T07:21:41.448Z,92992.95
2023-07-28T07:26:44.983Z,92048.38
2023-07-28T07:31:48.435Z,89999.13
2023-07-28T07:36:53.235Z,89585.50
2023-07-28T07:41:56.684Z,89078.65
2023-07-28T07:47:03.950Z,88386.05
2023-07-28T07:52:09.665Z,88036.95
2023-07-28T07:57:15.363Z,87419.64
2023-07-28T08:02:18.837Z,87124.33
2023-07-28T08:07:25.854Z,86929.74
2023-07-28T08:12:31.534Z,86749.51
2023-07-28T08:17:35.005Z,86632.05
2023-07-28T08:22:39.829Z,86669.61
2023-07-28T08:27:43.292Z,86537.77
2023-07-28T08:32:50.117Z,86236.26
2023-07-28T08:37:57.299Z,88427.43
2023-07-28T08:43:00.713Z,90604.01
2023-07-28T08:48:04.569Z,90061.24
2023-07-28T08:53:09.682Z,89679.39
2023-07-28T08:58:16.955Z,89608.09
2023-07-28T09:03:20.976Z,90357.80
2023-07-28T09:08:25.998Z,89058.57
2023-07-28T09:13:37.711Z,86317.96
2023-07-28T09:18:43.732Z,87989.48
2023-07-28T09:23:48.510Z,93729.36
2023-07-28T09:28:52.361Z,93016.84
2023-07-28T09:33:58.110Z,92202.54
2023-07-28T09:39:04.021Z,91873.77
2023-07-28T09:44:07.840Z,91841.75
2023-07-28T09:49:14.794Z,91693.74
2023-07-28T09:54:26.347Z,91428.27
2023-07-28T09:59:31.962Z,91533.67
2023-07-28T10:04:38.089Z,91538.69
2023-07-28T10:09:45.934Z,91354.75
2023-07-28T10:15:02.443Z,91096.38
2023-07-28T10:20:11.783Z,91353.77
2023-07-28T10:25:24.196Z,91433.17
2023-07-28T10:30:27.719Z,90596.00
2023-07-28T10:35:33.325Z,90306.48
2023-07-28T10:40:41.037Z,90099.81
2023-07-28T10:45:47.494Z,90193.18
2023-07-28T10:50:52.451Z,90163.75
2023-07-28T10:56:00.413Z,89938.66
2023-07-28T11:01:04.185Z,90054.37
2023-07-28T11:06:09.835Z,89217.59
2023-07-28T11:11:16.118Z,88978.50
2023-07-28T11:16:19.619Z,88523.94
2023-07-28T11:21:26.500Z,88605.77
2023-07-28T11:26:31.517Z,88510.75
2023-07-28T11:31:37.482Z,88574.61
2023-07-28T11:36:43.876Z,88425.09
2023-07-28T11:41:49.742Z,88214.31
2023-07-28T11:46:58.536Z,88072.63
2023-07-28T11:52:05.449Z,87303.43
2023-07-28T11:57:12.485Z,87274.07
2023-07-28T12:07:30.410Z,87140.95
2023-07-28T12:28:20.692Z,87043.55
2023-07-28T12:33:38.957Z,86958.95
2023-07-28T12:38:43.026Z,86794.94
2023-07-28T12:48:59.497Z,86808.55
2023-07-28T12:54:02.976Z,86884.20
2023-07-28T13:04:18.925Z,87286.88
2023-07-28T13:14:34.707Z,87149.88
2023-07-28T13:19:38.093Z,87327.62
2023-07-28T13:24:45.012Z,87723.48
2023-07-28T13:29:51.922Z,87772.06
2023-07-28T13:34:58.656Z,87660.76
2023-07-28T13:40:02.101Z,87769.44
2023-07-28T13:45:10.886Z,87752.62
2023-07-28T13:50:16.489Z,87708.00
2023-07-28T13:55:41.155Z,87795.82
2023-07-28T14:00:49.023Z,87746.41
2023-07-28T14:05:52.415Z,87534.41
2023-07-28T14:10:55.882Z,87407.11
2023-07-28T14:16:00.859Z,87334.65
2023-07-28T14:21:06.686Z,87401.02
2023-07-28T14:26:10.107Z,87380.88
2023-07-28T14:31:17.033Z,87252.43
2023-07-28T14:36:20.424Z,87223.05
2023-07-28T14:41:23.885Z,87232.39
2023-07-28T14:46:28.713Z,87272.83
2023-07-28T14:51:32.296Z,87327.80
2023-07-28T14:56:35.929Z,87261.63
2023-07-28T15:01:45.717Z,87220.71
2023-07-28T15:06:49.372Z,87484.13
2023-07-28T15:11:52.814Z,87737.90
2023-07-28T15:16:57.616Z,87493.13
2023-07-28T15:22:02.991Z,87003.92
2023-07-28T15:27:10.181Z,87159.30
2023-07-28T15:32:16.977Z,87207.66
2023-07-28T15:37:20.381Z,87476.19
2023-07-28T15:42:24.028Z,87218.38
2023-07-28T15:47:34.250Z,87093.70
2023-07-28T15:52:40.233Z,87144.13
2023-07-28T15:57:45.987Z,87224.98
2023-07-28T16:02:53.205Z,87286.02
2023-07-28T16:07:59.322Z,87330.25
2023-07-28T16:13:02.768Z,87797.07
2023-07-28T16:18:09.824Z,87918.60
2023-07-28T16:23:13.364Z,87696.79
2023-07-28T16:28:19.564Z,87929.88
2023-07-28T16:33:26.776Z,87889.70
2023-07-28T16:38:30.246Z,87740.20
2023-07-28T16:43:33.731Z,87950.66
2023-07-28T16:48:38.513Z,87551.70
2023-07-28T16:53:41.996Z,87518.13
2023-07-28T16:58:47.961Z,87683.60
2023-07-28T17:03:54.936Z,87508.94
2023-07-28T17:08:58.283Z,87524.01
2023-07-28T17:14:04.225Z,87437.15
2023-07-28T17:19:11.549Z,87304.52
2023-07-28T17:24:14.987Z,87161.91
2023-07-28T17:29:18.319Z,87363.41
2023-07-28T17:34:23.127Z,87435.18
2023-07-28T17:39:26.592Z,87799.80
2023-07-28T17:44:30.124Z,88250.73
2023-07-28T17:49:35.350Z,88186.50
2023-07-28T17:54:38.799Z,88115.71
2023-07-28T17:59:42.602Z,87969.60
2023-07-28T18:04:47.707Z,88061.91
2023-07-28T18:09:52.816Z,87955.69
2023-07-28T18:14:58.841Z,88771.73
2023-07-28T18:20:04.888Z,89287.55
2023-07-28T18:25:08.749Z,88696.88
2023-07-28T18:30:16.356Z,88255.73
2023-07-28T18:35:24.541Z,88026.59
2023-07-28T18:40:30.337Z,87844.01
2023-07-28T18:45:33.942Z,87781.66
2023-07-28T18:50:42.245Z,87864.05
2023-07-28T18:55:48.043Z,87615.70
2023-07-28T19:00:53.453Z,87757.23
2023-07-28T19:05:58.288Z,87671.06
2023-07-28T19:11:06.797Z,87548.95
2023-07-28T19:16:10.312Z,87650.02
2023-07-28T19:21:17.380Z,87751.50
2023-07-28T19:26:21.328Z,88019.38
2023-07-28T19:31:24.837Z,87916.49
2023-07-28T19:36:31.089Z,88083.58
2023-07-28T19:41:34.830Z,88716.85
2023-07-28T19:46:40.821Z,88772.27
2023-07-28T19:51:45.599Z,88151.45
2023-07-28T19:56:51.410Z,87877.71
2023-07-28T20:02:01.528Z,88006.25
2023-07-28T20:07:09.637Z,87807.27
2023-07-28T20:12:17.953Z,87695.68
2023-07-28T20:17:21.425Z,87728.55
2023-07-28T20:22:26.416Z,87650.62
2023-07-28T20:27:33.610Z,87663.39
2023-07-28T20:32:37.335Z,87640.55
2023-07-28T20:37:42.236Z,87591.51
2023-07-28T20:42:45.939Z,87464.73
2023-07-28T20:47:52.022Z,87567.50
2023-07-28T20:52:58.327Z,87405.06
2023-07-28T20:58:02.657Z,87354.98
2023-07-28T21:03:06.573Z,87408.26
2023-07-28T21:08:12.160Z,87301.26
2023-07-28T21:13:17.556Z,87314.43
2023-07-28T21:18:22.522Z,87602.54
2023-07-28T21:23:32.930Z,87778.74
2023-07-28T21:28:38.339Z,88224.21
2023-07-28T21:33:46.835Z,87327.11
2023-07-28T21:38:54.142Z,87285.46
2023-07-28T21:44:01.794Z,87214.60
2023-07-28T21:49:07.722Z,87351.90
2023-07-28T21:54:12.758Z,87037.52
2023-07-28T21:59:16.278Z,86852.18
2023-07-28T22:04:22.896Z,86795.26
2023-07-28T22:09:28.048Z,87688.81
2023-07-28T22:14:34.003Z,88877.05
2023-07-28T22:19:40.299Z,88848.69
2023-07-28T22:24:45.667Z,88877.87
2023-07-28T22:29:54.348Z,89516.15
2023-07-28T22:34:58.041Z,88796.02
2023-07-28T22:40:04.633Z,88386.55
2023-07-28T22:45:08.592Z,88949.64
2023-07-28T22:50:14.792Z,88929.15
2023-07-28T22:55:19.797Z,88470.70
2023-07-28T23:00:24.865Z,88171.20
2023-07-28T23:05:30.986Z,87701.58
2023-07-28T23:10:36.148Z,87612.88
2023-07-28T23:15:39.797Z,87491.38
2023-07-28T23:20:48.113Z,87369.05
2023-07-28T23:25:52.989Z,87297.69
2023-07-28T23:31:11.307Z,87218.61
2023-07-28T23:36:15.378Z,87135.46
2023-07-28T23:41:22.714Z,87273.26
2023-07-28T23:46:26.427Z,87062.73
2023-07-28T23:51:32.962Z,87077.20
2023-07-28T23:56:42.825Z,86958.60
